Observation data for White River Lake on 02/16/2017      Previous  Date  Next       Current Mesonet Observations  Soil Data  Daily Summary Page  Observations in Plain Language
KWVS 160600Z 22005KT 06/M02 A3012 RMK A01 T00631016  RH  058%=      5-min Rain = 0
KWVS 160605Z 23005KT 06/M02 A3012 RMK A01 T00621015  RH  058%=      5-min Rain = 0
KWVS 160610Z 23005KT 06/M02 A3012 RMK A01 T00591015  RH  059%=      5-min Rain = 0
KWVS 160615Z 23005KT 06/M01 A3012 RMK A01 T00591014  RH  060%=      5-min Rain = 0
KWVS 160620Z 23005KT 06/M01 A3011 RMK A01 T00581014  RH  061%=      5-min Rain = 0
KWVS 160625Z 23004KT 06/M01 A3011 RMK A01 T00571013  RH  061%=      5-min Rain = 0
KWVS 160630Z 23005KT 06/M01 A3011 RMK A01 T00551013  RH  062%=      5-min Rain = 0
KWVS 160635Z 24005KT 05/M01 A3011 RMK A01 T00541013  RH  063%=      5-min Rain = 0
KWVS 160640Z 24006KT 05/M01 A3011 RMK A01 T00541011  RH  063%=      5-min Rain = 0
KWVS 160645Z 25006KT 05/M01 A3011 RMK A01 T00531011  RH  064%=      5-min Rain = 0
KWVS 160650Z 25006KT 05/M01 A3011 RMK A01 T00521012  RH  064%=      5-min Rain = 0
KWVS 160655Z 25006KT 05/M01 A3011 RMK A01 T00531011  RH  064%=      5-min Rain = 0
KWVS 160700Z 25006KT 05/M01 A3011 RMK A01 T00541011  RH  064%=      5-min Rain = 0
KWVS 160705Z 24007KT 05/M01 A3011 RMK A01 T00531011  RH  064%=      5-min Rain = 0
KWVS 160710Z 24006KT 05/M01 A301 RMK A01 T00531011  RH  064%=      5-min Rain = 0
KWVS 160715Z 24006KT 05/M01 A301 RMK A01 T00541011  RH  064%=      5-min Rain = 0
KWVS 160720Z 25006KT 06/M01 A301 RMK A01 T00551011  RH  063%=      5-min Rain = 0
KWVS 160725Z 25005KT 06/M01 A301 RMK A01 T00551012  RH  063%=      5-min Rain = 0
KWVS 160730Z 26005KT 06/M01 A301 RMK A01 T00551012  RH  062%=      5-min Rain = 0
KWVS 160735Z 26006KT 06/M01 A301 RMK A01 T00551013  RH  062%=      5-min Rain = 0
KWVS 160740Z 26006KT 05/M01 A301 RMK A01 T00531014  RH  063%=      5-min Rain = 0
KWVS 160745Z 25006KT 05/M01 A301 RMK A01 T00511014  RH  063%=      5-min Rain = 0
KWVS 160750Z 25007KT 05/M01 A301 RMK A01 T00501013  RH  064%=      5-min Rain = 0
KWVS 160755Z 24008KT 05/M01 A3009 RMK A01 T00511012  RH  064%=      5-min Rain = 0
KWVS 160800Z 24008KT 05/M01 A3009 RMK A01 T00521012  RH  064%=      5-min Rain = 0
KWVS 160805Z 23007KT 05/M01 A301 RMK A01 T00521012  RH  064%=      5-min Rain = 0
KWVS 160810Z 23008KT 05/M01 A3009 RMK A01 T00511012  RH  065%=      5-min Rain = 0
KWVS 160815Z 23007KT 05/M01 A3009 RMK A01 T00501012  RH  065%=      5-min Rain = 0
KWVS 160820Z 23007KT 05/M01 A3009 RMK A01 T00501011  RH  065%=      5-min Rain = 0
KWVS 160825Z 23007KT 05/M01 A3009 RMK A01 T00491011  RH  066%=      5-min Rain = 0
KWVS 160830Z 24007KT 05/M01 A3009 RMK A01 T00501010  RH  065%=      5-min Rain = 0
KWVS 160835Z 24008KT 05/M01 A3009 RMK A01 T00521011  RH  065%=      5-min Rain = 0
KWVS 160840Z 24008KT 05/M01 A3009 RMK A01 T00511010  RH  065%=      5-min Rain = 0
KWVS 160845Z 24009KT 05/M01 A3009 RMK A01 T00511010  RH  065%=      5-min Rain = 0
KWVS 160850Z 24009KT 05/M01 A3008 RMK A01 T00531010  RH  064%=      5-min Rain = 0
KWVS 160855Z 24009KT 06/M01 A3008 RMK A01 T00551010  RH  064%=      5-min Rain = 0
KWVS 160900Z 23009KT 06/M01 A3008 RMK A01 T00551010  RH  063%=      5-min Rain = 0
KWVS 160905Z 23009KT 06/M01 A3008 RMK A01 T00551010  RH  063%=      5-min Rain = 0
KWVS 160910Z 23008KT 05/M01 A3008 RMK A01 T00531010  RH  064%=      5-min Rain = 0
KWVS 160915Z 23009KT 06/M01 A3007 RMK A01 T00551010  RH  063%=      5-min Rain = 0
KWVS 160920Z 23010KT 06/M01 A3007 RMK A01 T00551011  RH  063%=      5-min Rain = 0
KWVS 160925Z 23011KT 06/M01 A3007 RMK A01 T00561011  RH  063%=      5-min Rain = 0
KWVS 160930Z 23010G15KT 06/M01 A3007 RMK A01 T00561011  RH  063%=      5-min Rain = 0
KWVS 160935Z 23010KT 05/M01 A3007 RMK A01 T00541011  RH  063%=      5-min Rain = 0
KWVS 160940Z 23010KT 05/M01 A3007 RMK A01 T00541012  RH  063%=      5-min Rain = 0
KWVS 160945Z 23011KT 06/M01 A3007 RMK A01 T00551013  RH  062%=      5-min Rain = 0
KWVS 160950Z 23011KT 06/M01 A3007 RMK A01 T00561013  RH  061%=      5-min Rain = 0
KWVS 160955Z 23012KT 06/M01 A3007 RMK A01 T00571014  RH  061%=      5-min Rain = 0
KWVS 161000Z 24010KT 06/M02 A3007 RMK A01 T00561015  RH  061%=      5-min Rain = 0
KWVS 161005Z 25007KT 05/M02 A3007 RMK A01 T00531015  RH  062%=      5-min Rain = 0
KWVS 161010Z 25006KT 05/M02 A3006 RMK A01 T00511017  RH  062%=      5-min Rain = 0
KWVS 161015Z 26006KT 05/M02 A3006 RMK A01 T00501017  RH  062%=      5-min Rain = 0
KWVS 161020Z 28006KT 05/M02 A3006 RMK A01 T00471019  RH  063%=      5-min Rain = 0
KWVS 161025Z 26006KT 05/M02 A3006 RMK A01 T00461019  RH  063%=      5-min Rain = 0
KWVS 161030Z 27007KT 05/M02 A3006 RMK A01 T00471020  RH  062%=      5-min Rain = 0
KWVS 161035Z 26009KT 05/M02 A3006 RMK A01 T00491021  RH  061%=      5-min Rain = 0
KWVS 161040Z 26009KT 05/M02 A3006 RMK A01 T00491021  RH  061%=      5-min Rain = 0
KWVS 161045Z 26007KT 05/M02 A3006 RMK A01 T00491023  RH  060%=      5-min Rain = 0
KWVS 161050Z 26007KT 05/M02 A3006 RMK A01 T00471024  RH  060%=      5-min Rain = 0
KWVS 161055Z 26009KT 05/M03 A3005 RMK A01 T00501025  RH  059%=      5-min Rain = 0
KWVS 161100Z 26009KT 05/M03 A3005 RMK A01 T00521025  RH  058%=      5-min Rain = 0
KWVS 161105Z 25006KT 05/M03 A3006 RMK A01 T00501026  RH  058%=      5-min Rain = 0
KWVS 161110Z 25005KT 05/M03 A3006 RMK A01 T00491028  RH  058%=      5-min Rain = 0
KWVS 161115Z 25005KT 05/M03 A3006 RMK A01 T00501029  RH  057%=      5-min Rain = 0
KWVS 161120Z 25005KT 05/M03 A3006 RMK A01 T00481030  RH  057%=      5-min Rain = 0
KWVS 161125Z 24005KT 05/M03 A3006 RMK A01 T00471030  RH  058%=      5-min Rain = 0
KWVS 161130Z 25004KT 05/M03 A3006 RMK A01 T00471030  RH  058%=      5-min Rain = 0
KWVS 161135Z 26003KT 05/M03 A3006 RMK A01 T00461031  RH  058%=      5-min Rain = 0
KWVS 161140Z 26003KT 05/M03 A3006 RMK A01 T00461031  RH  058%=      5-min Rain = 0
KWVS 161145Z 24003KT 04/M03 A3006 RMK A01 T00441030  RH  059%=      5-min Rain = 0
KWVS 161150Z 22005KT 04/M03 A3006 RMK A01 T00351029  RH  063%=      5-min Rain = 0
KWVS 161155Z 23006KT 03/M03 A3005 RMK A01 T00341027  RH  065%=      5-min Rain = 0
KWVS 161200Z 25005KT 03/M03 A3005 RMK A01 T00331027  RH  065%=      5-min Rain = 0
KWVS 161205Z 28005KT 04/M03 A3005 RMK A01 T00391029  RH  062%=      5-min Rain = 0
KWVS 161210Z 28005KT 04/M03 A3005 RMK A01 T00351027  RH  064%=      5-min Rain = 0
KWVS 161215Z 28006KT 03/M03 A3005 RMK A01 T00311027  RH  066%=      5-min Rain = 0
KWVS 161220Z 28007KT 03/M03 A3005 RMK A01 T00331026  RH  066%=      5-min Rain = 0
KWVS 161225Z 28007KT 03/M03 A3005 RMK A01 T00341027  RH  065%=      5-min Rain = 0
KWVS 161230Z 27007KT 04/M03 A3005 RMK A01 T00351026  RH  064%=      5-min Rain = 0
KWVS 161235Z 27005KT 03/M03 A3005 RMK A01 T00331027  RH  065%=      5-min Rain = 0
KWVS 161240Z 26002KT 03/M03 A3005 RMK A01 T00281028  RH  067%=      5-min Rain = 0
KWVS 161245Z 24001KT 03/M03 A3005 RMK A01 T00291028  RH  067%=      5-min Rain = 0
KWVS 161250Z 21001KT 03/M03 A3005 RMK A01 T00291029  RH  066%=      5-min Rain = 0
KWVS 161255Z 17002KT 03/M03 A3005 RMK A01 T00251030  RH  067%=      5-min Rain = 0
KWVS 161300Z 19003KT 03/M03 A3005 RMK A01 T00251029  RH  068%=      5-min Rain = 0
KWVS 161305Z 21006KT 03/M03 A3005 RMK A01 T00251030  RH  068%=      5-min Rain = 0
KWVS 161310Z 23006KT 03/M03 A3005 RMK A01 T00251030  RH  067%=      5-min Rain = 0
KWVS 161315Z 24006KT 03/M03 A3005 RMK A01 T00281030  RH  066%=      5-min Rain = 0
KWVS 161320Z 24005KT 03/M03 A3005 RMK A01 T00281031  RH  065%=      5-min Rain = 0
KWVS 161325Z 24004G9KT 03/M03 A3005 RMK A01 T00261032  RH  066%=      5-min Rain = 0
KWVS 161330Z 22004KT 03/M03 A3005 RMK A01 T00291032  RH  064%=      5-min Rain = 0
KWVS 161335Z 21005KT 03/M03 A3005 RMK A01 T00251032  RH  066%=      5-min Rain = 0
KWVS 161340Z 23006KT 03/M03 A3005 RMK A01 T00261032  RH  066%=      5-min Rain = 0
KWVS 161345Z 24007KT 03/M03 A3005 RMK A01 T00331031  RH  063%=      5-min Rain = 0
KWVS 161350Z 24007KT 04/M03 A3005 RMK A01 T00421033  RH  058%=      5-min Rain = 0
KWVS 161355Z 25005KT 04/M03 A3005 RMK A01 T00431034  RH  058%=      5-min Rain = 0
KWVS 161400Z 25007KT 04/M03 A3005 RMK A01 T00431033  RH  058%=      5-min Rain = 0
KWVS 161405Z 25006KT 05/M03 A3005 RMK A01 T00461032  RH  057%=      5-min Rain = 0
KWVS 161410Z 24006KT 05/M03 A3005 RMK A01 T00491031  RH  057%=      5-min Rain = 0
KWVS 161415Z 25007KT 05/M03 A3005 RMK A01 T00511029  RH  057%=      5-min Rain = 0
KWVS 161420Z 25008KT 05/M03 A3005 RMK A01 T00541029  RH  056%=      5-min Rain = 0
KWVS 161425Z 25008G14KT 06/M03 A3005 RMK A01 T00561027  RH  055%=      5-min Rain = 0
KWVS 161430Z 25009KT 06/M03 A3005 RMK A01 T00581026  RH  055%=      5-min Rain = 0
KWVS 161435Z 25008KT 06/M02 A3005 RMK A01 T00611024  RH  055%=      5-min Rain = 0
KWVS 161440Z 25009KT 06/M02 A3005 RMK A01 T00641023  RH  054%=      5-min Rain = 0
KWVS 161445Z 25010KT 07/M02 A3005 RMK A01 T00671022  RH  053%=      5-min Rain = 0
KWVS 161450Z 24010G15KT 07/M02 A3005 RMK A01 T00701022  RH  052%=      5-min Rain = 0
KWVS 161455Z 24009G14KT 08/M02 A3005 RMK A01 T00751020  RH  051%=      5-min Rain = 0
KWVS 161500Z 23012G17KT 08/M02 A3005 RMK A01 T00791023  RH  049%=      5-min Rain = 0
KWVS 161505Z 24011KT 08/M02 A3005 RMK A01 T00781023  RH  049%=      5-min Rain = 0
KWVS 161510Z 23010G15KT 08/M02 A3005 RMK A01 T00831022  RH  048%=      5-min Rain = 0
KWVS 161515Z 24012KT 09/M02 A3005 RMK A01 T00861022  RH  047%=      5-min Rain = 0
KWVS 161520Z 23012KT 09/M02 A3005 RMK A01 T00901021  RH  046%=      5-min Rain = 0
KWVS 161525Z 24013KT 09/M02 A3004 RMK A01 T00941022  RH  045%=      5-min Rain = 0
KWVS 161530Z 23012KT 10/M02 A3004 RMK A01 T00971022  RH  044%=      5-min Rain = 0
KWVS 161535Z 24011KT 10/M02 A3004 RMK A01 T01001020  RH  043%=      5-min Rain = 0
KWVS 161540Z 23011KT 10/M02 A3004 RMK A01 T00981022  RH  043%=      5-min Rain = 0
KWVS 161545Z 23012G17KT 10/M02 A3004 RMK A01 T01001024  RH  042%=      5-min Rain = 0
KWVS 161550Z 23012G17KT 10/M03 A3004 RMK A01 T00991025  RH  042%=      5-min Rain = 0
KWVS 161555Z 22012G17KT 11/M02 A3004 RMK A01 T01081022  RH  040%=      5-min Rain = 0
KWVS 161600Z 23015KT 11/M03 A3003 RMK A01 T01111026  RH  038%=      5-min Rain = 0
KWVS 161605Z 23015KT 11/M03 A3003 RMK A01 T01131027  RH  038%=      5-min Rain = 0
KWVS 161610Z 23015G22KT 12/M03 A3003 RMK A01 T01161026  RH  037%=      5-min Rain = 0
KWVS 161615Z 23014G20KT 12/M02 A3003 RMK A01 T01211023  RH  037%=      5-min Rain = 0
KWVS 161620Z 22016G21KT 12/M03 A3003 RMK A01 T01201025  RH  037%=      5-min Rain = 0
KWVS 161625Z 22013G18KT 12/M02 A3003 RMK A01 T01241021  RH  037%=      5-min Rain = 0
KWVS 161630Z 22014KT 12/M02 A3003 RMK A01 T01241022  RH  036%=      5-min Rain = 0
KWVS 161635Z 22014G20KT 13/M02 A3003 RMK A01 T01271021  RH  036%=      5-min Rain = 0
KWVS 161640Z 22014G19KT 13/M02 A3003 RMK A01 T01301019  RH  036%=      5-min Rain = 0
KWVS 161645Z 22015KT 13/M02 A3003 RMK A01 T01291022  RH  035%=      5-min Rain = 0
KWVS 161650Z 22013KT 13/M02 A3002 RMK A01 T01281020  RH  036%=      5-min Rain = 0
KWVS 161655Z 22013KT 13/M02 A3002 RMK A01 T01311019  RH  035%=      5-min Rain = 0
KWVS 161700Z 22013KT 14/M02 A3002 RMK A01 T01391017  RH  034%=      5-min Rain = 0
KWVS 161705Z 23015G20KT 14/M02 A3002 RMK A01 T01441019  RH  033%=      5-min Rain = 0
KWVS 161710Z 23014KT 14/M02 A3002 RMK A01 T01431018  RH  033%=      5-min Rain = 0
KWVS 161715Z 23012G17KT 14/M02 A3002 RMK A01 T01431018  RH  033%=      5-min Rain = 0
KWVS 161720Z 22013G18KT 14/M02 A3002 RMK A01 T01411021  RH  033%=      5-min Rain = 0
KWVS 161725Z 23015G20KT 13/M03 A3002 RMK A01 T01341028  RH  033%=      5-min Rain = 0
KWVS 161730Z 23014KT 13/M03 A3002 RMK A01 T01331025  RH  034%=      5-min Rain = 0
KWVS 161735Z 22013KT 14/M02 A3001 RMK A01 T01361024  RH  033%=      5-min Rain = 0
KWVS 161740Z 22014G19KT 14/M02 A3001 RMK A01 T01361020  RH  034%=      5-min Rain = 0
KWVS 161745Z 22015KT 14/M02 A3001 RMK A01 T01371017  RH  035%=      5-min Rain = 0
KWVS 161750Z 22013KT 14/M01 A3001 RMK A01 T01441014  RH  034%=      5-min Rain = 0
KWVS 161755Z 22013KT 15/M01 A3001 RMK A01 T01491013  RH  033%=      5-min Rain = 0
KWVS 161800Z 23014KT 15/M01 A3001 RMK A01 T01541013  RH  032%=      5-min Rain = 0
KWVS 161805Z 24012G17KT 16/M01 A30 RMK A01 T01571009  RH  032%=      5-min Rain = 0
KWVS 161810Z 23013G18KT 16/M01 A30 RMK A01 T01601006  RH  032%=      5-min Rain = 0
KWVS 161815Z 22014G19KT 16/M01 A30 RMK A01 T01591014  RH  031%=      5-min Rain = 0
KWVS 161820Z 21016KT 16/M02 A2999 RMK A01 T01591020  RH  029%=      5-min Rain = 0
KWVS 161825Z 21015KT 16/M02 A2999 RMK A01 T01601019  RH  030%=      5-min Rain = 0
KWVS 161830Z 21013G18KT 16/M02 A2999 RMK A01 T01641017  RH  029%=      5-min Rain = 0
KWVS 161835Z 21015KT 16/M02 A2999 RMK A01 T01631021  RH  028%=      5-min Rain = 0
KWVS 161840Z 21015KT 16/M02 A2999 RMK A01 T01631017  RH  029%=      5-min Rain = 0
KWVS 161845Z 20014G19KT 16/M01 A2999 RMK A01 T01641013  RH  030%=      5-min Rain = 0
KWVS 161850Z 23015G22KT 17/M01 A2998 RMK A01 T01651013  RH  030%=      5-min Rain = 0
KWVS 161855Z 22015G20KT 16/M01 A2998 RMK A01 T01601013  RH  031%=      5-min Rain = 0
KWVS 161900Z 22014G19KT 16/M01 A2998 RMK A01 T01601007  RH  032%=      5-min Rain = 0
KWVS 161905Z 21015G20KT 16/M00 A2997 RMK A01 T01621003  RH  033%=      5-min Rain = 0
KWVS 161910Z 20014G21KT 16/00 A2997 RMK A01 T01630004  RH  034%=      5-min Rain = 0
KWVS 161915Z 21014G20KT 17/01 A2997 RMK A01 T01650008  RH  035%=      5-min Rain = 0
KWVS 161920Z 21014KT 16/00 A2997 RMK A01 T01630002  RH  034%=      5-min Rain = 0
KWVS 161925Z 21014KT 16/M00 A2996 RMK A01 T01641001  RH  033%=      5-min Rain = 0
KWVS 161930Z 21014KT 16/M00 A2996 RMK A01 T01571004  RH  034%=      5-min Rain = 0
KWVS 161935Z 20013G18KT 16/M01 A2996 RMK A01 T01601005  RH  033%=      5-min Rain = 0
KWVS 161940Z 20014G20KT 16/M01 A2996 RMK A01 T01571007  RH  033%=      5-min Rain = 0
KWVS 161945Z 21013G19KT 16/M02 A2996 RMK A01 T01551021  RH  030%=      5-min Rain = 0
KWVS 161950Z 21014G20KT 16/M01 A2995 RMK A01 T01581012  RH  032%=      5-min Rain = 0
KWVS 161955Z 20015G20KT 16/M02 A2995 RMK A01 T01591018  RH  030%=      5-min Rain = 0
KWVS 162000Z 21013G18KT 16/M01 A2995 RMK A01 T01581013  RH  031%=      5-min Rain = 0
KWVS 162005Z 20011G18KT 16/M01 A2994 RMK A01 T01581007  RH  033%=      5-min Rain = 0
KWVS 162010Z 21014G19KT 15/M01 A2994 RMK A01 T01531011  RH  033%=      5-min Rain = 0
KWVS 162015Z 22014KT 15/M01 A2994 RMK A01 T01521014  RH  032%=      5-min Rain = 0
KWVS 162020Z 21013KT 15/M01 A2994 RMK A01 T01531007  RH  034%=      5-min Rain = 0
KWVS 162025Z 20011KT 15/M00 A2994 RMK A01 T01531003  RH  035%=      5-min Rain = 0
KWVS 162030Z 20013G19KT 16/M01 A2994 RMK A01 T01601012  RH  031%=      5-min Rain = 0
KWVS 162035Z 20014KT 17/M02 A2993 RMK A01 T01701018  RH  028%=      5-min Rain = 0
KWVS 162040Z 20015KT 17/M01 A2993 RMK A01 T01711009  RH  030%=      5-min Rain = 0
KWVS 162045Z 20014G19KT 16/M00 A2993 RMK A01 T01621004  RH  032%=      5-min Rain = 0
KWVS 162050Z 19015G21KT 16/M00 A2993 RMK A01 T01631004  RH  032%=      5-min Rain = 0
KWVS 162055Z 20016G22KT 17/M01 A2993 RMK A01 T01711006  RH  030%=      5-min Rain = 0
KWVS 162100Z 20016G21KT 16/M01 A2993 RMK A01 T01641008  RH  031%=      5-min Rain = 0
KWVS 162105Z 21015KT 16/M01 A2993 RMK A01 T01561011  RH  032%=      5-min Rain = 0
KWVS 162110Z 21015KT 15/M01 A2993 RMK A01 T01511014  RH  033%=      5-min Rain = 0
KWVS 162115Z 21013G18KT 15/M01 A2993 RMK A01 T01531013  RH  032%=      5-min Rain = 0
KWVS 162120Z 21013G18KT 16/M02 A2993 RMK A01 T01581015  RH  031%=      5-min Rain = 0
KWVS 162125Z 20013KT 16/M02 A2992 RMK A01 T01631015  RH  030%=      5-min Rain = 0
KWVS 162130Z 20013KT 16/M01 A2992 RMK A01 T01611013  RH  031%=      5-min Rain = 0
KWVS 162135Z 21013KT 16/M01 A2992 RMK A01 T01591012  RH  031%=      5-min Rain = 0
KWVS 162140Z 22013KT 17/M01 A2992 RMK A01 T01691009  RH  030%=      5-min Rain = 0
KWVS 162145Z 22010KT 17/M01 A2992 RMK A01 T01721007  RH  030%=      5-min Rain = 0
KWVS 162150Z 21009KT 17/M01 A2991 RMK A01 T01741007  RH  030%=      5-min Rain = 0
KWVS 162155Z 22009KT 18/M00 A2991 RMK A01 T01761003  RH  030%=      5-min Rain = 0
KWVS 162200Z 21009G17KT 18/M00 A2991 RMK A01 T01811002  RH  029%=      5-min Rain = 0
KWVS 162205Z 19013KT 18/M01 A2991 RMK A01 T01811007  RH  028%=      5-min Rain = 0
KWVS 162210Z 21012G17KT 18/M01 A2991 RMK A01 T01811012  RH  027%=      5-min Rain = 0
KWVS 162215Z 20011KT 18/M02 A2991 RMK A01 T01831015  RH  026%=      5-min Rain = 0
KWVS 162220Z 21012G19KT 18/M02 A299 RMK A01 T01801016  RH  027%=      5-min Rain = 0
KWVS 162225Z 19012KT 18/M01 A299 RMK A01 T01811014  RH  027%=      5-min Rain = 0
KWVS 162230Z 19014KT 18/M02 A299 RMK A01 T01801015  RH  027%=      5-min Rain = 0
KWVS 162235Z 20013KT 18/M02 A299 RMK A01 T01791016  RH  027%=      5-min Rain = 0
KWVS 162240Z 20013G18KT 18/M01 A299 RMK A01 T01791014  RH  027%=      5-min Rain = 0
KWVS 162245Z 20014G21KT 18/M01 A299 RMK A01 T01791011  RH  028%=      5-min Rain = 0
KWVS 162250Z 20015KT 18/M01 A299 RMK A01 T01761012  RH  028%=      5-min Rain = 0
KWVS 162255Z 20015G20KT 17/M01 A299 RMK A01 T01741012  RH  028%=      5-min Rain = 0
KWVS 162300Z 20013KT 17/M01 A299 RMK A01 T01741013  RH  028%=      5-min Rain = 0
KWVS 162305Z 20014KT 17/M01 A299 RMK A01 T01731011  RH  029%=      5-min Rain = 0
KWVS 162310Z 21015G20KT 17/M01 A299 RMK A01 T01691007  RH  030%=      5-min Rain = 0
KWVS 162315Z 21014G19KT 17/M01 A299 RMK A01 T01681009  RH  030%=      5-min Rain = 0
KWVS 162320Z 21015KT 17/M02 A299 RMK A01 T01651017  RH  029%=      5-min Rain = 0
KWVS 162325Z 20015KT 16/M02 A299 RMK A01 T01621024  RH  028%=      5-min Rain = 0
KWVS 162330Z 20013KT 16/M02 A299 RMK A01 T01621024  RH  028%=      5-min Rain = 0
KWVS 162335Z 20012KT 16/M03 A299 RMK A01 T01601026  RH  028%=      5-min Rain = 0
KWVS 162340Z 20013KT 16/M03 A299 RMK A01 T01591026  RH  028%=      5-min Rain = 0
KWVS 162345Z 20011KT 16/M02 A299 RMK A01 T01591023  RH  029%=      5-min Rain = 0
KWVS 162350Z 20010KT 16/M02 A299 RMK A01 T01581021  RH  030%=      5-min Rain = 0
KWVS 162355Z 20011KT 16/M02 A299 RMK A01 T01561019  RH  030%=      5-min Rain = 0
KWVS 170000Z 20011KT 15/M02 A299 RMK A01 T01541017  RH  031%=      5-min Rain = 0
KWVS 170005Z 20011KT 15/M01 A2989 RMK A01 T01491014  RH  033%=      5-min Rain = 0
KWVS 170010Z 19009KT 15/M01 A2989 RMK A01 T01451012  RH  034%=      5-min Rain = 0
KWVS 170015Z 20009KT 14/M01 A2989 RMK A01 T01401011  RH  036%=      5-min Rain = 0
KWVS 170020Z 19009KT 14/M01 A2989 RMK A01 T01361010  RH  037%=      5-min Rain = 0
KWVS 170025Z 20008KT 13/M01 A2989 RMK A01 T01321009  RH  038%=      5-min Rain = 0
KWVS 170030Z 19008KT 13/M01 A2989 RMK A01 T01281008  RH  039%=      5-min Rain = 0
KWVS 170035Z 19008KT 13/M01 A2989 RMK A01 T01261007  RH  040%=      5-min Rain = 0
KWVS 170040Z 19009KT 12/M01 A299 RMK A01 T01241006  RH  041%=      5-min Rain = 0
KWVS 170045Z 19009KT 12/M01 A299 RMK A01 T01221006  RH  042%=      5-min Rain = 0
KWVS 170050Z 19008KT 12/M01 A299 RMK A01 T01201006  RH  042%=      5-min Rain = 0
KWVS 170055Z 19008KT 12/M01 A299 RMK A01 T01171007  RH  043%=      5-min Rain = 0
KWVS 170100Z 19009KT 12/M01 A299 RMK A01 T01171009  RH  042%=      5-min Rain = 0
KWVS 170105Z 19008KT 12/M01 A299 RMK A01 T01161010  RH  042%=      5-min Rain = 0
KWVS 170110Z 19008KT 11/M01 A299 RMK A01 T01121010  RH  043%=      5-min Rain = 0
KWVS 170115Z 20007KT 11/M01 A299 RMK A01 T01101009  RH  044%=      5-min Rain = 0
KWVS 170120Z 20007KT 11/M01 A299 RMK A01 T01061008  RH  046%=      5-min Rain = 0
KWVS 170125Z 21006KT 11/M01 A2989 RMK A01 T01071008  RH  045%=      5-min Rain = 0
KWVS 170130Z 21006KT 11/M01 A2989 RMK A01 T01071008  RH  045%=      5-min Rain = 0
KWVS 170135Z 21006KT 11/M01 A2989 RMK A01 T01061008  RH  046%=      5-min Rain = 0
KWVS 170140Z 22005KT 10/M01 A2989 RMK A01 T01031008  RH  047%=      5-min Rain = 0
KWVS 170145Z 22005KT 10/M01 A2989 RMK A01 T01011008  RH  047%=      5-min Rain = 0
KWVS 170150Z 21005KT 10/M01 A2989 RMK A01 T01001007  RH  048%=      5-min Rain = 0
KWVS 170155Z 21006KT 10/M01 A2989 RMK A01 T00981007  RH  048%=      5-min Rain = 0
KWVS 170200Z 22005KT 10/M01 A2989 RMK A01 T00981006  RH  049%=      5-min Rain = 0
KWVS 170205Z 22005KT 10/M01 A2989 RMK A01 T00981006  RH  049%=      5-min Rain = 0
KWVS 170210Z 21005KT 10/M01 A2989 RMK A01 T00991006  RH  048%=      5-min Rain = 0
KWVS 170215Z 22004KT 10/M01 A2989 RMK A01 T01001006  RH  048%=      5-min Rain = 0
KWVS 170220Z 22004KT 10/M01 A2989 RMK A01 T00971006  RH  049%=      5-min Rain = 0
KWVS 170225Z 22004KT 10/M01 A2989 RMK A01 T00961007  RH  049%=      5-min Rain = 0
KWVS 170230Z 22004KT 10/M01 A2989 RMK A01 T00951007  RH  049%=      5-min Rain = 0
KWVS 170235Z 22004KT 09/M01 A2989 RMK A01 T00941007  RH  050%=      5-min Rain = 0
KWVS 170240Z 21006KT 09/M01 A2988 RMK A01 T00931007  RH  050%=      5-min Rain = 0
KWVS 170245Z 21007KT 09/M01 A2988 RMK A01 T00881005  RH  053%=      5-min Rain = 0
KWVS 170250Z 21007KT 08/M00 A2988 RMK A01 T00841004  RH  054%=      5-min Rain = 0
KWVS 170255Z 21007KT 08/M00 A2988 RMK A01 T00811004  RH  056%=      5-min Rain = 0
KWVS 170300Z 21007KT 08/M00 A2988 RMK A01 T00781004  RH  057%=      5-min Rain = 0
KWVS 170305Z 21008KT 08/M00 A2988 RMK A01 T00761003  RH  058%=      5-min Rain = 0
KWVS 170310Z 21008KT 08/M00 A2988 RMK A01 T00751003  RH  058%=      5-min Rain = 0
KWVS 170315Z 21009KT 08/M00 A2988 RMK A01 T00751002  RH  058%=      5-min Rain = 0
KWVS 170320Z 21009KT 08/M00 A2988 RMK A01 T00771002  RH  058%=      5-min Rain = 0
KWVS 170325Z 21010KT 08/M00 A2988 RMK A01 T00781002  RH  057%=      5-min Rain = 0
KWVS 170330Z 21010KT 08/M00 A2988 RMK A01 T00811003  RH  056%=      5-min Rain = 0
KWVS 170335Z 22009KT 08/M00 A2988 RMK A01 T00821003  RH  055%=      5-min Rain = 0
KWVS 170340Z 22008KT 08/M00 A2988 RMK A01 T00821004  RH  055%=      5-min Rain = 0
KWVS 170345Z 22008KT 08/M00 A2988 RMK A01 T00831004  RH  055%=      5-min Rain = 0
KWVS 170350Z 19006KT 08/M00 A2988 RMK A01 T00791003  RH  057%=      5-min Rain = 0
KWVS 170355Z 20008KT 08/M00 A2988 RMK A01 T00781003  RH  057%=      5-min Rain = 0
KWVS 170400Z 19007KT 08/M00 A2988 RMK A01 T00761003  RH  058%=      5-min Rain = 0
KWVS 170405Z 18009KT 07/M00 A2988 RMK A01 T00731002  RH  060%=      5-min Rain = 0
KWVS 170410Z 18008KT 07/M00 A2988 RMK A01 T00681003  RH  061%=      5-min Rain = 0
KWVS 170415Z 18008KT 07/M00 A2988 RMK A01 T00681004  RH  061%=      5-min Rain = 0
KWVS 170420Z 17009KT 07/M01 A2988 RMK A01 T00691005  RH  060%=      5-min Rain = 0
KWVS 170425Z 19009KT 07/M01 A2988 RMK A01 T00691006  RH  059%=      5-min Rain = 0
KWVS 170430Z 20009KT 07/M01 A2988 RMK A01 T00731007  RH  058%=      5-min Rain = 0
KWVS 170435Z 20008KT 07/M01 A2988 RMK A01 T00711007  RH  058%=      5-min Rain = 0
KWVS 170440Z 21009KT 08/M01 A2987 RMK A01 T00751007  RH  057%=      5-min Rain = 0
KWVS 170445Z 21008KT 07/M01 A2987 RMK A01 T00711006  RH  059%=      5-min Rain = 0
KWVS 170450Z 21008KT 07/M01 A2987 RMK A01 T00681005  RH  060%=      5-min Rain = 0
KWVS 170455Z 21008KT 07/M01 A2987 RMK A01 T00681005  RH  060%=      5-min Rain = 0
KWVS 170500Z 21008KT 07/M01 A2987 RMK A01 T00671005  RH  061%=      5-min Rain = 0
KWVS 170505Z 21009KT 07/M01 A2987 RMK A01 T00681005  RH  060%=      5-min Rain = 0
KWVS 170510Z 21009KT 07/M01 A2987 RMK A01 T00681005  RH  060%=      5-min Rain = 0
KWVS 170515Z 21008KT 07/M01 A2986 RMK A01 T00691006  RH  060%=      5-min Rain = 0
KWVS 170520Z 21009KT 07/M01 A2986 RMK A01 T00701006  RH  059%=      5-min Rain = 0
KWVS 170525Z 20010KT 07/M01 A2987 RMK A01 T00721006  RH  058%=      5-min Rain = 0
KWVS 170530Z 20010KT 08/M01 A2987 RMK A01 T00761007  RH  056%=      5-min Rain = 0
KWVS 170535Z 20010KT 08/M01 A2987 RMK A01 T00761006  RH  057%=      5-min Rain = 0
KWVS 170540Z 20011KT 07/M01 A2987 RMK A01 T00741007  RH  057%=      5-min Rain = 0
KWVS 170545Z 20010KT 07/M01 A2986 RMK A01 T00731006  RH  058%=      5-min Rain = 0
KWVS 170550Z 20010KT 07/M01 A2986 RMK A01 T00741006  RH  057%=      5-min Rain = 0
KWVS 170555Z 20009KT 07/M01 A2986 RMK A01 T00731006  RH  058%=      5-min Rain = 0

Page generated in 0.0225 seconds.